Time;durP1;ratioP1;P1;durP2;ratioP2;P2;SDS_P1;SDS_P2;PMS_P1;PMS_P2;Temp;Humidity;BMP_temperature;BMP_pressure;BME280_temperature;BME280_humidity;BME280_pressure;Samples;Min_cycle;Max_cycle;Signal;HPM_P1;HPM_P2
2022/04/28 00:00:14;;;;;;;11.40;6.32;;;;;;;11.21;57.63;102183.50;5086793;28;20060;-71
2022/04/28 00:02:42;;;;;;;12.63;6.50;;;;;;;11.03;58.08;102177.06;5099624;27;20096;-71
2022/04/28 00:05:10;;;;;;;13.50;6.22;;;;;;;10.86;58.32;102181.09;5084044;28;20105;-70
2022/04/28 00:07:38;;;;;;;13.90;6.40;;;;;;;10.29;60.08;102187.09;5079690;28;20048;-70
2022/04/28 00:10:06;;;;;;;10.00;6.30;;;;;;;10.53;59.30;102188.19;5089382;28;20400;-70
2022/04/28 00:12:33;;;;;;;13.02;6.80;;;;;;;10.52;59.26;102194.34;5086759;27;20047;-70
2022/04/28 00:14:59;;;;;;;14.70;6.80;;;;;;;10.51;59.55;102190.84;5087966;27;20121;-70
2022/04/28 00:17:26;;;;;;;15.90;6.97;;;;;;;11.03;57.73;102191.94;5106227;27;20051;-70
2022/04/28 00:19:54;;;;;;;11.45;6.47;;;;;;;10.80;58.23;102197.00;5099898;27;20085;-70
2022/04/28 00:22:21;;;;;;;16.27;6.45;;;;;;;10.95;57.59;102191.31;5085417;28;20051;-70
2022/04/28 00:24:47;;;;;;;11.27;6.85;;;;;;;10.64;58.81;102204.50;5089937;28;20048;-70
2022/04/28 00:27:14;;;;;;;14.10;6.90;;;;;;;10.88;58.28;102197.66;5082754;28;20044;-70
2022/04/28 00:29:40;;;;;;;10.38;6.57;;;;;;;10.57;59.20;102214.28;5107494;28;20483;-70
2022/04/28 00:32:08;;;;;;;11.30;6.78;;;;;;;10.42;59.81;102211.25;5107177;27;20051;-70
2022/04/28 00:34:34;;;;;;;11.90;6.72;;;;;;;10.77;58.58;102202.34;5099019;28;20047;-70
2022/04/28 00:37:02;;;;;;;18.92;6.32;;;;;;;10.57;58.78;102208.16;5080132;28;20049;-70
2022/04/28 00:39:28;;;;;;;11.10;6.32;;;;;;;10.13;60.28;102210.22;5106213;28;20067;-70
2022/04/28 00:41:54;;;;;;;13.32;6.47;;;;;;;10.10;60.74;102219.91;5091702;28;20403;-70
2022/04/28 00:44:21;;;;;;;13.00;7.00;;;;;;;9.88;61.78;102209.13;5104837;27;20043;-70
2022/04/28 00:46:47;;;;;;;13.90;6.60;;;;;;;10.10;60.90;102217.28;5107523;28;20679;-70
2022/04/28 00:51:59;;;;;;;17.83;7.32;;;;;;;10.36;60.37;102219.25;5080056;28;20055;-71
2022/04/28 00:54:29;;;;;;;13.05;6.95;;;;;;;10.29;60.17;102215.94;5098339;28;20050;-71
2022/04/28 00:56:55;;;;;;;12.23;6.65;;;;;;;9.93;62.02;102219.50;5085457;28;20090;-71
2022/04/28 00:59:22;;;;;;;12.13;7.20;;;;;;;9.77;62.17;102221.66;5105914;27;20093;-70
2022/04/28 01:01:49;;;;;;;11.60;6.65;;;;;;;9.55;63.32;102221.31;5101645;28;20048;-70
2022/04/28 01:04:15;;;;;;;17.98;7.15;;;;;;;9.53;63.82;102222.25;5078385;28;20048;-71
2022/04/28 01:06:42;;;;;;;9.68;6.75;;;;;;;9.17;65.38;102227.41;5080844;28;20553;-71
2022/04/28 01:09:08;;;;;;;12.70;6.38;;;;;;;9.08;65.78;102224.16;5087911;28;20052;-71
2022/04/28 01:11:37;;;;;;;10.65;6.57;;;;;;;9.20;65.49;102222.13;5080505;28;20040;-71
2022/04/28 01:14:03;;;;;;;12.07;7.00;;;;;;;9.03;65.96;102229.47;5083745;28;20631;-71
2022/04/28 01:16:29;;;;;;;12.93;6.95;;;;;;;9.55;64.54;102223.94;5075404;28;20044;-71
2022/04/28 01:18:56;;;;;;;11.20;6.88;;;;;;;9.63;63.64;102222.00;5078866;28;20041;-71
2022/04/28 01:21:23;;;;;;;11.40;6.68;;;;;;;9.02;66.04;102232.97;5080231;28;20044;-71
2022/04/28 01:23:50;;;;;;;10.35;7.00;;;;;;;8.83;66.63;102228.19;5088625;28;20056;-71
2022/04/28 01:26:17;;;;;;;10.57;6.80;;;;;;;8.95;66.63;102235.75;5088494;28;20212;-70
2022/04/28 01:28:43;;;;;;;12.27;7.65;;;;;;;9.00;66.36;102223.47;5080262;28;20052;-70
2022/04/28 01:31:09;;;;;;;13.25;7.55;;;;;;;8.78;66.96;102229.16;5087701;28;20070;-70
2022/04/28 01:33:36;;;;;;;10.90;6.68;;;;;;;8.98;66.13;102231.31;5085848;28;20184;-70
2022/04/28 01:36:03;;;;;;;15.40;7.72;;;;;;;8.57;68.03;102234.78;5087736;28;20101;-71
2022/04/28 01:38:32;;;;;;;13.88;7.10;;;;;;;8.52;68.20;102233.16;5079067;28;20131;-70
2022/04/28 01:40:58;;;;;;;11.00;6.40;;;;;;;9.10;66.49;102232.81;5088157;28;20422;-70
2022/04/28 01:43:24;;;;;;;14.52;7.72;;;;;;;9.24;65.89;102238.59;5088799;28;20549;-70
2022/04/28 01:45:51;;;;;;;12.98;6.93;;;;;;;9.69;63.98;102227.06;5088430;28;20500;-70
2022/04/28 01:48:17;;;;;;;14.60;6.95;;;;;;;9.20;65.29;102232.59;5089052;28;20200;-70
2022/04/28 01:54:57;;;;;;;14.98;7.05;;;;;;;8.99;66.52;102235.66;5087591;28;20048;-70
2022/04/28 01:56:16;;;;;;;15.52;7.30;;;;;;;9.37;64.98;102244.44;5074574;28;20528;-70
2022/04/28 01:58:42;;;;;;;16.17;7.07;;;;;;;9.25;64.80;102249.06;5084982;28;20078;-70
2022/04/28 02:01:08;;;;;;;11.85;7.00;;;;;;;8.91;65.75;102252.41;5068024;28;20060;-70
2022/04/28 02:03:35;;;;;;;11.45;7.10;;;;;;;9.08;65.06;102248.56;5068552;28;20044;-70
2022/04/28 02:06:01;;;;;;;18.88;7.57;;;;;;;9.16;65.28;102243.19;5088027;28;20040;-70
2022/04/28 02:08:27;;;;;;;18.80;7.40;;;;;;;9.04;65.37;102246.03;5087325;28;20089;-70
2022/04/28 02:10:55;;;;;;;18.13;7.72;;;;;;;9.26;64.70;102249.91;5087174;28;20052;-70
2022/04/28 02:13:21;;;;;;;13.13;6.85;;;;;;;9.48;63.64;102248.53;5085134;28;20044;-70
2022/04/28 02:15:48;;;;;;;17.90;7.47;;;;;;;8.96;65.49;102250.56;5087944;28;20459;-70
2022/04/28 02:18:14;;;;;;;16.80;8.10;;;;;;;9.20;64.80;102247.44;5087747;28;20040;-70
2022/04/28 02:20:40;;;;;;;13.98;7.68;;;;;;;8.90;65.59;102250.72;5084102;28;20385;-70
2022/04/28 02:23:07;;;;;;;20.30;7.43;;;;;;;9.06;65.19;102245.09;5081725;28;20168;-70
2022/04/28 02:25:33;;;;;;;13.70;6.93;;;;;;;8.92;65.91;102247.16;5085101;28;20501;-71
2022/04/28 02:28:01;;;;;;;12.05;7.88;;;;;;;9.04;65.54;102246.03;5084172;28;20040;-71
2022/04/28 02:30:27;;;;;;;13.35;8.02;;;;;;;8.91;65.77;102248.06;5087376;28;20040;-71
2022/04/28 02:33:11;;;;;;;15.30;7.15;;;;;;;8.53;66.65;102245.34;5087623;28;20466;-71
2022/04/28 02:35:39;;;;;;;19.10;8.27;;;;;;;8.57;67.17;102247.03;5080668;28;22575;-71
2022/04/28 02:38:05;;;;;;;15.85;7.43;;;;;;;8.56;67.44;102247.91;5075771;28;20049;-71
2022/04/28 02:40:32;;;;;;;16.73;7.93;;;;;;;8.30;68.33;102251.00;5086902;28;20048;-71
2022/04/28 02:42:59;;;;;;;27.48;7.93;;;;;;;8.27;68.38;102256.28;5087697;28;20416;-71
2022/04/28 02:45:27;;;;;;;17.65;8.50;;;;;;;8.25;68.73;102248.44;5087941;28;20393;-71
2022/04/28 02:47:53;;;;;;;19.77;7.97;;;;;;;8.35;68.63;102251.81;5087951;28;20048;-70
2022/04/28 02:50:21;;;;;;;15.75;9.45;;;;;;;8.42;68.55;102255.16;5085398;28;20725;-71
2022/04/28 02:52:48;;;;;;;27.15;10.02;;;;;;;8.41;68.28;102249.06;5079947;28;20415;-71
2022/04/28 02:55:14;;;;;;;15.60;8.18;;;;;;;8.58;67.26;102249.59;5078073;28;20037;-72
2022/04/28 02:57:41;;;;;;;22.65;7.95;;;;;;;8.35;68.26;102253.56;5085905;28;20120;-71
2022/04/28 03:00:08;;;;;;;22.98;9.15;;;;;;;8.20;68.51;102258.09;5086828;28;20054;-71
2022/04/28 03:02:36;;;;;;;13.07;7.85;;;;;;;8.47;67.74;102250.69;5087141;28;20094;-71
2022/04/28 03:05:04;;;;;;;15.23;8.13;;;;;;;8.71;66.69;102258.06;5087189;28;20491;-71
2022/04/28 03:12:59;;;;;;;15.02;7.03;;;;;;;8.80;64.88;102258.72;5087108;28;20213;-70
2022/04/28 03:15:26;;;;;;;13.75;7.63;;;;;;;8.67;64.93;102259.88;5087460;28;20047;-71
2022/04/28 03:17:53;;;;;;;17.25;6.78;;;;;;;8.75;64.27;102262.34;5087348;28;20052;-71
2022/04/28 03:20:20;;;;;;;20.35;7.97;;;;;;;8.67;64.40;102265.13;5086740;28;20105;-70
2022/04/28 03:22:47;;;;;;;13.27;8.32;;;;;;;8.67;63.99;102257.28;5076355;28;20044;-71
2022/04/28 03:25:13;;;;;;;15.25;8.15;;;;;;;8.66;64.24;102255.53;5067381;28;20078;-71
2022/04/28 03:27:39;;;;;;;16.02;7.40;;;;;;;8.44;64.29;102264.69;5087071;28;20051;-70
2022/04/28 03:30:08;;;;;;;14.45;7.45;;;;;;;8.41;64.20;102262.13;5086924;28;20097;-70
2022/04/28 03:32:34;;;;;;;13.43;7.75;;;;;;;8.15;64.24;102272.16;5089960;28;20064;-71
2022/04/28 03:35:02;;;;;;;14.90;8.20;;;;;;;8.05;66.00;102260.16;5090805;28;20485;-70
2022/04/28 03:37:29;;;;;;;17.40;7.32;;;;;;;8.08;66.19;102275.75;5081613;28;20500;-70
2022/04/28 03:39:55;;;;;;;19.08;7.53;;;;;;;7.91;66.51;102273.41;5069841;28;20054;-70
2022/04/28 03:42:21;;;;;;;18.40;7.97;;;;;;;7.76;66.44;102263.25;5081120;28;20560;-71
2022/04/28 03:44:48;;;;;;;19.77;7.85;;;;;;;7.73;66.83;102279.81;5090896;28;20582;-70
2022/04/28 03:47:14;;;;;;;13.38;7.75;;;;;;;7.77;66.98;102272.78;5086297;28;20124;-70
2022/04/28 03:49:42;;;;;;;21.77;7.97;;;;;;;7.63;67.02;102275.63;5084083;28;20048;-70
2022/04/28 03:52:10;;;;;;;25.05;7.93;;;;;;;7.81;66.10;102277.06;5084265;28;20062;-70
2022/04/28 03:54:36;;;;;;;14.88;7.78;;;;;;;7.86;66.11;102279.63;5087945;28;20049;-70
2022/04/28 03:57:03;;;;;;;16.67;7.57;;;;;;;7.91;65.67;102283.03;5089090;28;20105;-70
2022/04/28 03:59:29;;;;;;;13.10;7.18;;;;;;;7.89;65.89;102282.16;5077929;28;20109;-70
2022/04/28 04:01:56;;;;;;;13.57;7.32;;;;;;;8.03;65.41;102280.19;5071087;28;20114;-71
2022/04/28 04:04:22;;;;;;;14.75;7.88;;;;;;;7.92;66.09;102288.22;5077428;28;20074;-70
2022/04/28 04:06:48;;;;;;;11.00;7.25;;;;;;;7.75;66.65;102292.84;5080407;28;20120;-70
2022/04/28 04:09:16;;;;;;;15.80;8.07;;;;;;;7.86;67.03;102285.72;5086610;28;20404;-70
2022/04/28 04:11:42;;;;;;;12.60;7.70;;;;;;;7.78;67.13;102293.66;5082284;28;20045;-70
2022/04/28 04:14:09;;;;;;;11.50;7.07;;;;;;;7.59;67.73;102286.97;5083431;28;20142;-70
2022/04/28 04:16:35;;;;;;;16.10;8.57;;;;;;;7.68;67.91;102297.31;5090564;28;20553;-70
2022/04/28 04:19:01;;;;;;;18.05;8.25;;;;;;;7.99;66.90;102291.56;5088447;28;20052;-70
2022/04/28 04:21:28;;;;;;;20.83;9.10;;;;;;;7.91;67.79;102298.69;5078546;28;20044;-70
2022/04/28 04:23:54;;;;;;;17.42;8.23;;;;;;;8.10;67.08;102307.94;5086349;28;20048;-70
2022/04/28 04:26:22;;;;;;;22.13;8.57;;;;;;;7.92;67.94;102300.41;5082968;28;20067;-70
2022/04/28 04:28:49;;;;;;;17.10;8.10;;;;;;;8.00;67.57;102303.75;5077981;28;20101;-70
2022/04/28 04:33:59;;;;;;;20.00;8.48;;;;;;;8.26;66.89;102315.50;5089875;28;20143;-70
2022/04/28 04:36:26;;;;;;;16.25;8.48;;;;;;;8.27;67.19;102303.31;5089131;28;20086;-70
2022/04/28 04:38:52;;;;;;;15.18;8.88;;;;;;;8.15;67.84;102317.44;5073114;28;20052;-70
2022/04/28 04:41:18;;;;;;;16.70;8.65;;;;;;;8.11;68.17;102307.94;5087102;28;20147;-70
2022/04/28 04:43:46;;;;;;;13.80;8.35;;;;;;;7.68;69.68;102319.94;5089741;28;20047;-71
2022/04/28 04:46:12;;;;;;;22.58;8.60;;;;;;;7.59;70.64;102323.53;5089625;28;20044;-70
2022/04/28 04:48:39;;;;;;;19.42;8.20;;;;;;;8.15;69.42;102320.06;5077803;28;20085;-70
2022/04/28 04:51:05;;;;;;;18.55;8.55;;;;;;;8.15;70.44;102322.66;5086491;28;20073;-71
2022/04/28 04:53:32;;;;;;;15.43;9.32;;;;;;;8.29;70.14;102319.84;5089637;28;20066;-71
2022/04/28 04:55:58;;;;;;;15.98;8.55;;;;;;;8.50;69.89;102332.53;5089361;28;20487;-71
2022/04/28 04:58:25;;;;;;;19.60;8.05;;;;;;;8.62;69.43;102334.94;5082620;28;20067;-71
2022/04/28 05:00:52;;;;;;;15.70;8.73;;;;;;;8.62;69.20;102334.06;5082504;28;20052;-71
2022/04/28 05:03:19;;;;;;;18.65;8.63;;;;;;;9.07;68.24;102330.56;5081391;28;20659;-70
2022/04/28 05:05:45;;;;;;;13.68;7.63;;;;;;;8.93;68.55;102327.38;5085576;28;20450;-71
2022/04/28 05:08:14;;;;;;;14.60;6.85;;;;;;;9.22;68.09;102334.63;5084193;28;20089;-71
2022/04/28 05:10:40;;;;;;;16.45;7.78;;;;;;;9.63;66.67;102341.59;5087350;28;20131;-72
2022/04/28 05:13:08;;;;;;;17.45;8.27;;;;;;;9.50;66.58;102341.00;5082331;28;20048;-72
2022/04/28 05:15:34;;;;;;;16.58;7.85;;;;;;;9.67;66.58;102338.00;5078390;28;20131;-72
2022/04/28 05:18:02;;;;;;;11.45;7.13;;;;;;;10.31;64.21;102342.59;5088685;28;20044;-72
2022/04/28 05:20:28;;;;;;;13.82;7.80;;;;;;;10.83;62.57;102349.97;5086121;28;20476;-72
2022/04/28 05:22:54;;;;;;;16.85;8.48;;;;;;;10.83;62.98;102351.75;5089177;28;20052;-72
2022/04/28 05:25:21;;;;;;;12.95;8.07;;;;;;;10.83;62.72;102357.00;5089172;28;20036;-72
2022/04/28 05:27:47;;;;;;;17.50;8.75;;;;;;;10.79;62.58;102352.75;5089351;28;20083;-72
2022/04/28 05:30:13;;;;;;;14.05;7.32;;;;;;;10.83;63.14;102359.63;5087857;28;20105;-71
2022/04/28 05:32:40;;;;;;;12.65;6.90;;;;;;;10.85;63.24;102366.56;5088456;28;20174;-72
2022/04/28 05:35:08;;;;;;;13.63;7.03;;;;;;;11.46;61.10;102370.91;5081312;28;20101;-71
2022/04/28 05:37:35;;;;;;;17.50;7.90;;;;;;;11.76;60.17;102357.78;5079775;28;20048;-71
2022/04/28 05:40:01;;;;;;;12.82;7.05;;;;;;;11.75;60.00;102359.56;5085164;28;20048;-72
2022/04/28 05:47:53;;;;;;;17.70;8.95;;;;;;;11.99;59.54;102368.47;5068201;28;20060;-71
2022/04/28 05:50:20;;;;;;;18.02;7.88;;;;;;;12.20;58.81;102375.66;5082283;28;20464;-71
2022/04/28 05:52:47;;;;;;;11.75;7.95;;;;;;;12.45;58.17;102366.03;5088434;28;20048;-71
2022/04/28 05:55:13;;;;;;;15.70;7.55;;;;;;;12.79;57.47;102367.50;5088401;28;20121;-71
2022/04/28 05:57:39;;;;;;;13.70;7.30;;;;;;;13.13;55.82;102370.69;5088191;28;20481;-71
2022/04/28 06:00:07;;;;;;;23.40;8.07;;;;;;;13.16;55.41;102370.56;5087042;28;20044;-71
2022/04/28 06:02:35;;;;;;;16.88;7.72;;;;;;;13.37;56.39;102372.44;5088322;28;20046;-71
2022/04/28 06:05:02;;;;;;;20.08;7.93;;;;;;;13.67;54.82;102377.47;5088138;28;20055;-71
2022/04/28 06:07:29;;;;;;;17.23;8.10;;;;;;;13.73;55.18;102371.94;5079978;28;20043;-71
2022/04/28 06:09:56;;;;;;;14.18;7.85;;;;;;;13.99;54.35;102374.41;5086414;28;20071;-71
2022/04/28 06:12:24;;;;;;;14.40;7.97;;;;;;;14.02;53.61;102379.56;5087978;28;20557;-71
2022/04/28 06:14:50;;;;;;;22.60;7.60;;;;;;;14.53;52.48;102381.88;5068078;28;20102;-71
2022/04/28 06:17:17;;;;;;;13.25;7.55;;;;;;;14.25;53.77;102376.00;5068653;28;20072;-71
2022/04/28 06:19:45;;;;;;;15.10;8.07;;;;;;;14.45;55.04;102379.56;5075814;28;20072;-71
2022/04/28 06:22:11;;;;;;;10.18;7.35;;;;;;;14.72;51.96;102379.31;5088247;28;20512;-71
2022/04/28 06:24:39;;;;;;;16.80;8.27;;;;;;;14.73;52.79;102378.41;5078312;28;20052;-71
2022/04/28 06:27:05;;;;;;;18.17;7.65;;;;;;;14.97;52.45;102386.09;5070768;28;20044;-71
2022/04/28 06:29:32;;;;;;;15.00;8.02;;;;;;;15.17;51.03;102390.50;5077138;28;20099;-71
2022/04/28 06:31:58;;;;;;;15.95;8.18;;;;;;;15.44;50.94;102385.78;5074426;28;20094;-71
2022/04/28 06:34:25;;;;;;;17.10;8.18;;;;;;;15.56;50.46;102399.31;5075022;28;20044;-71
2022/04/28 06:36:51;;;;;;;13.68;7.70;;;;;;;15.86;49.72;102393.50;5084711;28;20416;-71
2022/04/28 06:39:17;;;;;;;15.60;8.00;;;;;;;16.00;49.63;102385.78;5074419;28;20617;-70
2022/04/28 06:41:45;;;;;;;15.80;8.10;;;;;;;16.04;50.18;102389.97;5087027;28;20040;-70
2022/04/28 06:44:11;;;;;;;13.15;8.25;;;;;;;16.06;48.21;102385.47;5087783;28;20044;-70
2022/04/28 06:46:38;;;;;;;11.90;7.78;;;;;;;16.38;48.89;102387.41;5087929;28;20392;-70
2022/04/28 06:49:04;;;;;;;14.77;8.63;;;;;;;16.38;49.85;102387.41;5086873;28;20052;-70
2022/04/28 06:51:31;;;;;;;15.73;7.97;;;;;;;16.84;48.27;102391.25;5087868;28;20040;-69
2022/04/28 06:53:58;;;;;;;14.38;7.55;;;;;;;16.64;50.97;102399.34;5087582;28;20093;-70
2022/04/28 06:56:24;;;;;;;13.10;8.02;;;;;;;16.98;46.77;102395.84;5087747;28;20514;-69
2022/04/28 06:58:53;;;;;;;11.90;7.50;;;;;;;16.97;49.30;102400.28;5087067;28;20040;-69
2022/04/28 07:01:19;;;;;;;13.52;7.82;;;;;;;17.10;47.93;102397.84;5088226;28;20151;-70
2022/04/28 07:03:45;;;;;;;14.48;8.07;;;;;;;17.03;49.50;102393.81;5091660;28;20087;-69
2022/04/28 07:06:12;;;;;;;14.70;7.68;;;;;;;17.29;48.04;102390.63;5091202;28;20047;-69
2022/04/28 07:08:38;;;;;;;13.55;8.18;;;;;;;17.42;48.48;102394.31;5088077;28;20482;-69
2022/04/28 07:11:04;;;;;;;17.05;8.57;;;;;;;17.58;48.64;102391.75;5083164;28;20442;-69
2022/04/28 07:13:31;;;;;;;15.02;8.10;;;;;;;17.91;49.23;102402.28;5071602;28;20049;-70
2022/04/28 07:15:58;;;;;;;13.02;7.72;;;;;;;17.83;46.12;102401.84;5071333;28;20442;-70
2022/04/28 07:18:24;;;;;;;12.32;7.60;;;;;;;18.13;47.90;102408.09;5081981;28;20044;-70
2022/04/28 07:20:51;;;;;;;13.70;8.30;;;;;;;18.30;46.96;102407.97;5091164;28;20120;-70
2022/04/28 07:23:17;;;;;;;15.32;7.07;;;;;;;18.42;47.22;102401.94;5091607;28;20768;-70
2022/04/28 07:25:44;;;;;;;14.90;7.60;;;;;;;18.90;46.78;102408.00;5091286;28;20170;-70
2022/04/28 07:28:10;;;;;;;12.30;7.60;;;;;;;18.73;47.34;102408.16;5090728;28;20040;-70
2022/04/28 07:30:36;;;;;;;12.75;7.68;;;;;;;18.85;46.57;102407.41;5090419;28;20047;-70
2022/04/28 07:33:04;;;;;;;12.75;7.78;;;;;;;18.76;43.92;102411.47;5091288;28;20440;-70
2022/04/28 07:35:31;;;;;;;19.40;7.55;;;;;;;18.81;45.74;102413.84;5091031;28;20551;-70
2022/04/28 07:37:57;;;;;;;11.27;7.47;;;;;;;18.96;44.50;102413.78;5084279;28;20559;-70
2022/04/28 07:40:23;;;;;;;15.63;7.93;;;;;;;19.78;40.20;102413.16;5080187;28;20080;-71
2022/04/28 07:42:50;;;;;;;12.43;7.78;;;;;;;19.69;44.39;102416.41;5071270;28;20068;-71
2022/04/28 07:45:16;;;;;;;11.85;7.60;;;;;;;19.41;42.59;102423.44;5071086;28;20122;-71
2022/04/28 07:47:42;;;;;;;12.07;7.88;;;;;;;20.50;39.15;102412.00;5074088;28;20044;-71
2022/04/28 07:50:11;;;;;;;12.05;7.70;;;;;;;20.24;42.03;102411.91;5089813;28;20055;-72
2022/04/28 07:52:38;;;;;;;13.43;7.70;;;;;;;20.44;43.91;102417.72;5090548;28;20044;-72
2022/04/28 07:55:06;;;;;;;10.50;6.90;;;;;;;20.22;41.62;102418.25;5090843;28;20056;-71
2022/04/28 07:57:32;;;;;;;13.10;7.30;;;;;;;21.02;37.92;102410.16;5090700;28;22075;-71
2022/04/28 07:59:59;;;;;;;9.82;7.63;;;;;;;21.14;39.57;102409.31;5089809;28;20047;-71
2022/04/28 08:02:26;;;;;;;12.43;8.10;;;;;;;20.92;42.91;102413.56;5090771;28;20702;-71
2022/04/28 08:04:53;;;;;;;15.05;7.80;;;;;;;21.04;39.39;102413.56;5090452;28;20416;-71
2022/04/28 08:07:20;;;;;;;10.93;7.45;;;;;;;20.51;40.28;102413.72;5083310;28;20048;-71
2022/04/28 08:09:47;;;;;;;9.55;7.30;;;;;;;20.73;40.76;102413.97;5088296;28;20536;-71
2022/04/28 08:12:14;;;;;;;10.60;6.97;;;;;;;20.91;41.11;102410.06;5089821;28;20047;-71
2022/04/28 08:14:40;;;;;;;11.25;7.38;;;;;;;20.63;38.95;102413.72;5090011;28;20048;-71
2022/04/28 08:17:07;;;;;;;11.75;7.40;;;;;;;20.91;40.58;102412.72;5090332;28;20039;-71
2022/04/28 08:19:34;;;;;;;11.30;7.65;;;;;;;21.27;40.87;102412.00;5076311;28;20048;-71
2022/04/28 08:22:01;;;;;;;11.35;7.65;;;;;;;20.98;39.74;102414.00;5070072;28;20496;-71
2022/04/28 08:24:28;;;;;;;12.93;7.32;;;;;;;21.06;36.68;102410.81;5084894;28;20044;-71
2022/04/28 08:26:55;;;;;;;17.77;7.05;;;;;;;21.86;39.85;102410.41;5089911;28;20044;-71
2022/04/28 08:29:21;;;;;;;11.27;6.60;;;;;;;21.98;37.78;102411.34;5089709;28;20105;-71
2022/04/28 08:31:49;;;;;;;19.23;7.72;;;;;;;22.25;40.96;102415.50;5069350;28;20045;-71
2022/04/28 08:34:15;;;;;;;15.05;6.72;;;;;;;22.57;36.13;102405.09;5068530;28;20143;-71
2022/04/28 08:36:42;;;;;;;11.15;6.97;;;;;;;21.92;37.72;102417.13;5060168;28;20056;-71
2022/04/28 08:39:08;;;;;;;13.88;7.57;;;;;;;22.38;37.00;102423.47;5068073;28;20052;-71
2022/04/28 08:41:41;;;;;;;10.60;6.95;;;;;;;22.14;36.98;102419.94;5069787;28;20439;-71
2022/04/28 08:44:14;;;;;;;10.32;6.78;;;;;;;22.73;35.66;102423.50;5069994;28;20041;-71
2022/04/28 08:46:53;;;;;;;12.10;7.75;;;;;;;22.71;36.62;102415.63;5055163;28;20053;-71
2022/04/28 08:49:22;;;;;;;10.77;7.22;;;;;;;22.46;37.86;102420.22;5085253;28;20147;-71
2022/04/28 08:51:51;;;;;;;13.80;7.40;;;;;;;22.68;41.18;102423.88;5089180;28;20055;-71
2022/04/28 08:54:17;;;;;;;11.60;7.72;;;;;;;21.79;37.65;102425.16;5090052;28;20096;-71
2022/04/28 08:56:45;;;;;;;9.95;7.40;;;;;;;21.68;36.79;102417.94;5089341;28;20075;-71
2022/04/28 08:59:13;;;;;;;13.60;8.07;;;;;;;21.51;40.11;102423.59;5077590;28;20080;-71
2022/04/28 09:01:39;;;;;;;13.55;7.25;;;;;;;21.95;38.31;102431.13;5068219;28;20048;-71
2022/04/28 09:04:07;;;;;;;14.82;7.13;;;;;;;22.22;35.16;102417.56;5068599;28;20504;-72
2022/04/28 09:06:36;;;;;;;12.80;7.43;;;;;;;22.72;35.31;102420.00;5069525;28;20052;-71
2022/04/28 09:09:04;;;;;;;14.15;7.95;;;;;;;22.61;36.74;102422.59;5066018;28;20049;-70
2022/04/28 09:11:34;;;;;;;16.35;7.50;;;;;;;22.42;33.94;102416.94;5076391;28;20441;-70
2022/04/28 09:14:13;;;;;;;11.73;6.60;;;;;;;21.80;34.22;102419.69;5069026;28;20045;-69
2022/04/28 09:16:42;;;;;;;16.67;7.03;;;;;;;21.91;36.08;102426.13;5065159;28;20041;-69
2022/04/28 09:19:10;;;;;;;13.40;7.45;;;;;;;21.50;36.66;102418.38;5068385;28;20429;-70
2022/04/28 09:21:37;;;;;;;9.55;6.70;;;;;;;21.82;37.01;102427.59;5067714;28;20041;-70
2022/04/28 09:24:05;;;;;;;12.77;7.43;;;;;;;21.86;36.14;102429.09;5053439;28;20052;-70
2022/04/28 09:26:33;;;;;;;12.68;7.40;;;;;;;22.57;38.48;102420.28;5048143;28;20444;-71
2022/04/28 09:29:03;;;;;;;9.85;6.60;;;;;;;22.73;33.50;102431.53;5048088;28;20069;-70
2022/04/28 09:31:30;;;;;;;9.80;6.50;;;;;;;23.22;32.31;102424.09;5045487;28;20489;-70
2022/04/28 09:33:56;;;;;;;8.13;6.32;;;;;;;23.10;30.54;102441.09;5048652;28;20049;-70
2022/04/28 09:36:23;;;;;;;10.38;7.32;;;;;;;22.86;29.69;102424.28;5056783;28;20190;-70
2022/04/28 09:38:53;;;;;;;9.18;6.35;;;;;;;23.51;30.71;102429.84;5039511;28;20045;-70
2022/04/28 09:44:05;;;;;;;12.13;7.72;;;;;;;23.90;29.64;102425.81;5068001;28;20472;-70
2022/04/28 09:46:32;;;;;;;10.45;7.95;;;;;;;23.27;29.54;102423.75;5068123;28;20040;-70
2022/04/28 09:48:59;;;;;;;13.50;7.80;;;;;;;23.11;32.97;102415.19;5067271;28;20658;-70
2022/04/28 09:51:26;;;;;;;12.55;7.22;;;;;;;23.26;35.34;102425.56;5068567;28;20048;-70
2022/04/28 09:53:52;;;;;;;16.73;7.72;;;;;;;23.74;35.35;102425.34;5054287;28;20045;-70
2022/04/28 09:56:24;;;;;;;9.55;6.82;;;;;;;23.48;31.57;102419.38;5048668;28;20045;-70
2022/04/28 09:58:51;;;;;;;14.57;6.33;;;;;;;23.74;31.40;102426.19;5036145;28;20049;-70
2022/04/28 10:01:20;;;;;;;10.50;7.03;;;;;;;23.73;33.05;102420.94;5044347;28;20045;-70
2022/04/28 10:03:47;;;;;;;12.98;7.10;;;;;;;23.44;30.71;102422.44;5063174;28;20044;-70
2022/04/28 10:06:13;;;;;;;11.48;6.80;;;;;;;23.21;31.39;102425.06;5076704;28;20049;-70
2022/04/28 10:08:42;;;;;;;17.48;8.20;;;;;;;23.21;32.47;102424.19;5062457;28;20041;-70
2022/04/28 10:11:14;;;;;;;10.73;6.57;;;;;;;23.38;32.19;102422.88;5066372;28;20044;-70
2022/04/28 10:13:41;;;;;;;9.27;6.72;;;;;;;23.70;34.29;102422.06;5067024;28;20045;-70
2022/04/28 10:16:13;;;;;;;10.35;6.43;;;;;;;23.45;30.81;102418.78;5066904;28;20110;-70
2022/04/28 10:18:45;;;;;;;17.02;6.88;;;;;;;22.58;32.27;102422.81;5067972;28;20040;-70
2022/04/28 10:21:15;;;;;;;17.25;7.05;;;;;;;21.41;32.69;102422.56;5067554;28;20483;-70
2022/04/28 10:35:06;;;;;;;15.98;7.45;;;;;;;23.70;30.66;102419.38;5071241;28;20139;-70
2022/04/28 10:37:34;;;;;;;9.13;6.63;;;;;;;23.47;30.52;102416.81;5084129;28;20480;-70
2022/04/28 10:40:00;;;;;;;10.40;6.70;;;;;;;23.23;31.98;102417.78;5090791;28;20052;-70
2022/04/28 10:43:01;;;;;;;14.10;7.07;;;;;;;23.22;33.13;102423.25;5073908;28;20546;-70
2022/04/28 10:45:29;;;;;;;12.18;7.22;;;;;;;23.36;33.81;102425.69;5071328;28;20044;-70
2022/04/28 10:48:20;;;;;;;10.23;6.35;;;;;;;23.52;30.30;102423.53;5071820;28;20426;-70
2022/04/28 10:51:13;;;;;;;11.27;7.20;;;;;;;24.07;34.92;102421.75;5071220;28;20041;-70
2022/04/28 10:54:00;;;;;;;12.50;7.25;;;;;;;24.20;30.45;102422.47;5058145;28;20045;-70
2022/04/28 10:56:28;;;;;;;9.57;6.97;;;;;;;23.55;30.39;102425.09;5051517;28;20040;-70
2022/04/28 10:58:58;;;;;;;8.55;6.75;;;;;;;24.02;30.13;102413.25;5063038;28;20075;-70
2022/04/28 11:01:26;;;;;;;11.98;6.35;;;;;;;24.02;33.21;102418.59;5071417;28;20079;-70
2022/04/28 11:03:54;;;;;;;11.98;7.43;;;;;;;24.00;31.21;102416.03;5067061;28;20048;-70
2022/04/28 11:06:24;;;;;;;13.75;7.32;;;;;;;23.93;31.36;102408.63;5080068;28;20041;-70
2022/04/28 11:08:54;;;;;;;8.23;6.50;;;;;;;24.46;32.95;102407.75;5062340;28;20044;-70
2022/04/28 11:11:21;;;;;;;10.32;5.50;;;;;;;24.72;33.69;102403.69;5071355;28;20040;-70
2022/04/28 11:13:53;;;;;;;7.22;5.47;;;;;;;24.44;31.10;102392.75;5071250;28;20052;-70
2022/04/28 11:16:20;;;;;;;7.35;5.38;;;;;;;23.68;29.90;102405.28;5071584;28;20480;-70
2022/04/28 11:18:46;;;;;;;8.40;5.60;;;;;;;23.42;29.10;102411.00;5070359;28;20040;-70
2022/04/28 11:21:14;;;;;;;8.73;5.63;;;;;;;23.19;30.99;102412.78;5071101;28;20048;-70
2022/04/28 11:23:44;;;;;;;8.45;5.95;;;;;;;23.40;31.84;102404.88;5064408;28;20047;-70
2022/04/28 11:26:11;;;;;;;11.63;5.53;;;;;;;23.33;30.41;102403.66;5071021;28;20059;-70
2022/04/28 11:28:38;;;;;;;14.45;6.18;;;;;;;23.93;31.85;102397.91;5070928;28;20118;-70
2022/04/28 11:31:10;;;;;;;11.32;6.03;;;;;;;24.06;33.13;102388.72;5070243;28;20052;-70
2022/04/28 11:33:41;;;;;;;8.93;5.75;;;;;;;23.89;30.17;102394.63;5070834;28;20045;-70
2022/04/28 11:36:15;;;;;;;10.50;5.80;;;;;;;24.24;33.32;102386.41;5067385;28;20040;-69
2022/04/28 11:38:49;;;;;;;8.73;5.60;;;;;;;23.98;29.79;102390.34;5079893;28;20100;-66
2022/04/28 11:41:15;;;;;;;9.75;5.70;;;;;;;24.06;29.51;102383.38;5070706;28;20041;-65
2022/04/28 11:43:42;;;;;;;9.32;5.68;;;;;;;24.13;28.24;102381.91;5070853;28;20090;-65
2022/04/28 11:46:09;;;;;;;12.63;5.80;;;;;;;24.05;30.41;102378.16;5068406;28;20412;-65
2022/04/28 11:48:36;;;;;;;10.52;5.80;;;;;;;24.36;29.76;102374.63;5059486;28;20052;-65
2022/04/28 11:51:04;;;;;;;9.07;5.43;;;;;;;24.15;30.70;102379.97;5069853;28;20064;-65
2022/04/28 11:53:44;;;;;;;8.77;6.18;;;;;;;23.91;32.73;102381.13;5063852;28;20037;-66
2022/04/28 11:56:24;;;;;;;17.45;6.03;;;;;;;23.72;29.85;102374.56;5066238;28;20053;-65